createdAt,value
2018-12-07T00:02:02.536Z,6.92
2018-12-07T00:04:38.882Z,8.68
2018-12-07T00:07:14.956Z,7.12
2018-12-07T00:09:51.145Z,5.95
2018-12-07T00:12:27.144Z,4.28
2018-12-07T00:15:03.514Z,4.72
2018-12-07T00:17:39.665Z,5.62
2018-12-07T00:20:15.752Z,4.05
2018-12-07T00:22:51.566Z,4.05
2018-12-07T00:25:27.457Z,3.83
2018-12-07T00:28:03.322Z,3.90
2018-12-07T00:30:39.083Z,3.65
2018-12-07T00:33:14.773Z,3.75
2018-12-07T00:35:50.816Z,3.55
2018-12-07T00:38:26.993Z,4.25
2018-12-07T00:41:03.272Z,4.87
2018-12-07T00:43:39.266Z,4.58
2018-12-07T00:46:15.318Z,4.65
2018-12-07T00:48:51.542Z,4.08
2018-12-07T00:51:27.756Z,3.52
2018-12-07T00:54:03.972Z,3.87
2018-12-07T00:56:40.144Z,3.87
2018-12-07T00:59:16.071Z,3.60
2018-12-07T01:01:52.093Z,4.20
2018-12-07T01:04:27.992Z,3.98
2018-12-07T01:07:04.204Z,3.72
2018-12-07T01:09:40.391Z,4.85
2018-12-07T01:12:16.424Z,4.47
2018-12-07T01:14:52.732Z,4.20
2018-12-07T01:17:28.626Z,4.28
2018-12-07T01:20:04.663Z,4.55
2018-12-07T01:22:40.723Z,4.15
2018-12-07T01:25:16.779Z,4.10
2018-12-07T01:27:52.756Z,3.75
2018-12-07T01:30:28.682Z,4.15
2018-12-07T01:33:04.705Z,4.45
2018-12-07T01:35:40.860Z,4.37
2018-12-07T01:38:16.982Z,3.95
2018-12-07T01:40:53.315Z,4.20
2018-12-07T01:43:29.416Z,4.62
2018-12-07T01:46:05.854Z,4.30
2018-12-07T01:48:42.011Z,4.40
2018-12-07T01:51:17.882Z,4.35
2018-12-07T01:53:54.134Z,4.67
2018-12-07T01:56:30.298Z,5.25
2018-12-07T01:59:06.544Z,4.95
2018-12-07T02:01:42.795Z,4.85
2018-12-07T02:04:19.071Z,5.03
2018-12-07T02:06:55.105Z,3.92
2018-12-07T02:09:31.345Z,4.75
2018-12-07T02:12:07.453Z,4.53
2018-12-07T02:14:43.434Z,4.30
2018-12-07T02:17:19.446Z,5.42
2018-12-07T02:19:55.445Z,5.65
2018-12-07T02:22:31.686Z,5.58
2018-12-07T02:25:08.532Z,4.90
2018-12-07T02:27:49.736Z,5.00
2018-12-07T02:30:25.722Z,5.42
2018-12-07T02:33:01.642Z,5.28
2018-12-07T02:35:37.678Z,5.58
2018-12-07T02:38:13.544Z,5.20
2018-12-07T02:40:49.568Z,5.55
2018-12-07T02:43:25.874Z,6.00
2018-12-07T02:46:02.165Z,6.17
2018-12-07T02:48:38.298Z,6.60
2018-12-07T02:51:14.436Z,6.67
2018-12-07T02:53:50.441Z,5.90
2018-12-07T02:56:26.617Z,6.42
2018-12-07T02:59:02.945Z,6.65
2018-12-07T03:01:39.171Z,7.28
2018-12-07T03:04:15.361Z,7.05
2018-12-07T03:06:51.554Z,6.47
2018-12-07T03:09:27.983Z,7.35
2018-12-07T03:12:04.178Z,8.23
2018-12-07T03:14:40.331Z,7.83
2018-12-07T03:17:16.447Z,8.63
2018-12-07T03:19:52.709Z,9.08
2018-12-07T03:22:28.982Z,8.78
2018-12-07T03:25:05.852Z,9.00
2018-12-07T03:27:41.648Z,10.80
2018-12-07T03:30:17.820Z,9.90
2018-12-07T03:32:53.967Z,10.32
2018-12-07T03:35:30.236Z,9.58
2018-12-07T03:38:06.484Z,11.18
2018-12-07T03:40:42.523Z,11.00
2018-12-07T03:43:19.832Z,10.53
2018-12-07T03:45:55.782Z,10.25
2018-12-07T03:48:31.915Z,9.15
2018-12-07T03:51:07.992Z,11.50
2018-12-07T03:53:44.024Z,9.05
2018-12-07T03:56:20.354Z,10.28
2018-12-07T03:58:56.572Z,9.93
2018-12-07T04:01:32.867Z,9.88
2018-12-07T04:04:09.611Z,10.20
2018-12-07T04:06:47.969Z,8.33
2018-12-07T04:09:23.881Z,8.90
2018-12-07T04:11:59.857Z,7.50
2018-12-07T04:14:36.015Z,7.08
2018-12-07T04:17:12.162Z,7.60
2018-12-07T04:19:48.100Z,7.05
2018-12-07T04:22:25.355Z,6.97
2018-12-07T04:25:01.577Z,7.35
2018-12-07T04:27:37.737Z,6.40
2018-12-07T04:30:24.018Z,6.60
2018-12-07T04:32:59.975Z,5.87
2018-12-07T04:35:36.227Z,5.60
2018-12-07T04:38:12.655Z,5.90
2018-12-07T04:40:48.670Z,5.35
2018-12-07T04:43:24.689Z,5.53
2018-12-07T04:46:00.955Z,4.72
2018-12-07T04:48:37.415Z,4.28
2018-12-07T04:51:13.555Z,4.42
2018-12-07T04:53:49.576Z,4.72
2018-12-07T04:56:25.732Z,5.20
2018-12-07T04:59:02.275Z,4.53
2018-12-07T05:01:38.266Z,3.70
2018-12-07T05:04:14.283Z,4.17
2018-12-07T05:06:50.496Z,4.30
2018-12-07T05:09:26.662Z,4.30
2018-12-07T05:12:02.702Z,4.53
2018-12-07T05:14:38.863Z,4.60
2018-12-07T05:17:15.219Z,5.20
2018-12-07T05:19:51.298Z,4.00
2018-12-07T05:22:27.545Z,3.62
2018-12-07T05:25:03.456Z,4.50
2018-12-07T05:27:39.533Z,4.70
2018-12-07T05:30:15.405Z,4.55
2018-12-07T05:32:51.565Z,4.72
2018-12-07T05:35:27.802Z,4.00
2018-12-07T05:38:04.615Z,3.83
2018-12-07T05:40:40.752Z,3.85
2018-12-07T05:43:16.914Z,4.25
2018-12-07T05:45:53.078Z,3.75
2018-12-07T05:48:30.932Z,4.75
2018-12-07T05:51:06.956Z,4.50
2018-12-07T05:53:42.827Z,4.47
2018-12-07T05:56:19.075Z,3.35
2018-12-07T05:58:55.325Z,3.85
2018-12-07T06:01:31.473Z,3.55
2018-12-07T06:04:07.463Z,3.50
2018-12-07T06:06:43.626Z,4.17
2018-12-07T06:09:19.575Z,4.00
2018-12-07T06:11:55.823Z,3.87
2018-12-07T06:14:32.877Z,4.25
2018-12-07T06:17:08.842Z,3.95
2018-12-07T06:19:44.980Z,4.12
2018-12-07T06:22:21.082Z,4.85
2018-12-07T06:24:57.121Z,4.00
2018-12-07T06:27:33.316Z,4.03
2018-12-07T06:30:09.500Z,3.83
2018-12-07T06:32:45.576Z,4.72
2018-12-07T06:35:21.660Z,5.70
2018-12-07T06:37:57.753Z,4.30
2018-12-07T06:40:33.676Z,5.50
2018-12-07T06:43:09.675Z,4.80
2018-12-07T06:45:45.684Z,5.47
2018-12-07T06:48:21.780Z,5.53
2018-12-07T06:50:57.493Z,5.00
2018-12-07T06:53:33.499Z,5.65
2018-12-07T06:56:09.840Z,5.65
2018-12-07T06:58:45.904Z,5.40
2018-12-07T07:01:21.766Z,6.65
2018-12-07T07:03:57.733Z,6.60
2018-12-07T07:06:33.753Z,5.28
2018-12-07T07:09:10.135Z,5.50
2018-12-07T07:11:46.790Z,5.72
2018-12-07T07:14:22.894Z,6.00
2018-12-07T07:16:59.008Z,5.90
2018-12-07T07:19:35.095Z,6.70
2018-12-07T07:22:11.106Z,5.85
2018-12-07T07:24:47.070Z,5.85
2018-12-07T07:27:23.054Z,6.58
2018-12-07T07:29:59.068Z,5.35
2018-12-07T07:32:35.035Z,5.97
2018-12-07T07:35:11.233Z,6.10
2018-12-07T07:37:47.343Z,6.40
2018-12-07T07:40:23.430Z,6.55
2018-12-07T07:42:59.709Z,6.90
2018-12-07T07:45:35.976Z,7.10
2018-12-07T07:48:12.109Z,6.67
2018-12-07T07:50:48.059Z,7.85
2018-12-07T07:53:24.172Z,7.60
2018-12-07T07:56:00.458Z,8.20
2018-12-07T07:58:36.551Z,7.33
2018-12-07T08:01:12.620Z,7.10
2018-12-07T08:03:48.741Z,7.33
2018-12-07T08:06:24.837Z,6.40
2018-12-07T08:09:00.884Z,5.55
2018-12-07T08:11:38.990Z,7.28
2018-12-07T08:14:15.251Z,5.40
2018-12-07T08:16:51.080Z,6.03
2018-12-07T08:19:27.142Z,5.25
2018-12-07T08:22:03.388Z,4.22
2018-12-07T08:24:39.464Z,4.17
2018-12-07T08:27:16.960Z,5.00
2018-12-07T08:29:52.894Z,5.33
2018-12-07T08:32:29.200Z,4.10
2018-12-07T08:35:05.691Z,4.42
2018-12-07T08:37:41.695Z,4.00
2018-12-07T08:40:17.889Z,4.28
2018-12-07T08:42:54.162Z,3.42
2018-12-07T08:45:30.295Z,4.00
2018-12-07T08:48:06.673Z,4.30
2018-12-07T08:50:42.996Z,3.85
2018-12-07T08:53:19.083Z,4.08
2018-12-07T08:55:55.085Z,5.37
2018-12-07T08:58:31.179Z,3.20
2018-12-07T09:01:07.281Z,3.60
2018-12-07T09:03:43.529Z,3.65
2018-12-07T09:06:20.007Z,3.30
2018-12-07T09:08:56.504Z,3.27
2018-12-07T09:11:32.503Z,2.98
2018-12-07T09:14:08.574Z,3.47
2018-12-07T09:16:44.613Z,3.05
2018-12-07T09:19:20.819Z,2.75
2018-12-07T09:21:56.958Z,2.70
2018-12-07T09:24:33.149Z,2.85
2018-12-07T09:27:09.323Z,3.02
2018-12-07T09:29:45.430Z,2.77
2018-12-07T09:32:21.403Z,3.42
2018-12-07T09:34:57.342Z,2.87
2018-12-07T09:37:33.480Z,3.62
2018-12-07T09:40:09.789Z,2.75
2018-12-07T09:42:46.242Z,3.75
2018-12-07T09:45:22.374Z,3.75
2018-12-07T09:47:58.363Z,3.70
2018-12-07T09:50:34.755Z,4.08
2018-12-07T09:53:10.783Z,4.45
2018-12-07T09:55:46.930Z,4.87
2018-12-07T09:58:23.419Z,4.47
2018-12-07T10:00:59.443Z,4.60
2018-12-07T10:03:35.539Z,4.75
2018-12-07T10:06:11.446Z,4.45
2018-12-07T10:08:47.403Z,3.83
2018-12-07T10:11:23.597Z,4.05
2018-12-07T10:13:59.612Z,4.80
2018-12-07T10:16:35.623Z,4.53
2018-12-07T10:19:11.883Z,4.00
2018-12-07T10:21:47.844Z,4.50
2018-12-07T10:24:23.982Z,3.80
2018-12-07T10:27:06.154Z,4.25
2018-12-07T10:29:42.051Z,3.77
2018-12-07T10:32:18.201Z,3.52
2018-12-07T10:34:54.120Z,3.80
2018-12-07T10:37:30.127Z,3.20
2018-12-07T10:40:06.879Z,3.85
2018-12-07T10:42:42.953Z,3.15
2018-12-07T10:45:19.021Z,3.75
2018-12-07T10:47:55.133Z,3.47
2018-12-07T10:50:31.139Z,2.80
2018-12-07T10:53:07.153Z,3.10
2018-12-07T10:55:43.231Z,3.37
2018-12-07T10:58:19.568Z,3.27
2018-12-07T11:01:00.870Z,3.65
2018-12-07T11:03:42.414Z,2.95
2018-12-07T11:06:23.693Z,2.80
2018-12-07T11:09:06.733Z,2.75
2018-12-07T11:11:49.173Z,2.58
2018-12-07T11:14:30.430Z,2.35
2018-12-07T11:17:11.844Z,2.50
2018-12-07T11:19:53.124Z,2.30
2018-12-07T11:22:34.574Z,2.77
2018-12-07T11:25:16.057Z,1.87
2018-12-07T11:27:57.342Z,2.50
2018-12-07T11:30:38.500Z,2.27
2018-12-07T11:33:19.641Z,1.87
2018-12-07T11:35:55.824Z,2.92
2018-12-07T11:38:32.033Z,2.42
2018-12-07T11:41:08.070Z,2.20
2018-12-07T11:43:46.441Z,3.10
2018-12-07T11:46:22.583Z,1.75
2018-12-07T11:48:58.740Z,2.12
2018-12-07T11:51:34.741Z,2.67
2018-12-07T11:54:10.880Z,2.40
2018-12-07T11:56:46.927Z,2.40
2018-12-07T11:59:23.071Z,3.25
2018-12-07T12:01:58.974Z,2.20
2018-12-07T12:04:35.173Z,2.27
2018-12-07T12:07:11.471Z,2.40
2018-12-07T12:09:47.473Z,2.83
2018-12-07T12:12:25.820Z,2.30
2018-12-07T12:15:01.885Z,2.80
2018-12-07T12:17:38.110Z,2.40
2018-12-07T12:20:15.209Z,2.60
2018-12-07T12:22:51.604Z,2.35
2018-12-07T12:25:27.862Z,2.75
2018-12-07T12:28:04.020Z,2.37
2018-12-07T12:30:40.341Z,2.20
2018-12-07T12:33:16.642Z,1.60
2018-12-07T12:35:53.083Z,2.52
2018-12-07T12:38:29.348Z,2.12
2018-12-07T12:41:05.391Z,2.72
2018-12-07T12:43:41.574Z,1.70
2018-12-07T12:46:17.830Z,2.20
2018-12-07T12:48:54.160Z,2.27
2018-12-07T12:51:30.103Z,2.20
2018-12-07T12:54:06.234Z,1.95
2018-12-07T12:56:42.881Z,1.95
2018-12-07T12:59:19.083Z,1.85
2018-12-07T13:01:55.224Z,1.50
2018-12-07T13:04:31.301Z,1.80
2018-12-07T13:07:07.753Z,2.02
2018-12-07T13:09:43.754Z,1.70
2018-12-07T13:12:20.071Z,1.75
2018-12-07T13:14:56.465Z,2.10
2018-12-07T13:17:33.012Z,1.47
2018-12-07T13:20:09.596Z,1.47
2018-12-07T13:22:45.836Z,1.70
2018-12-07T13:25:21.812Z,1.85
2018-12-07T13:27:57.939Z,1.85
2018-12-07T13:30:34.230Z,1.75
2018-12-07T13:33:10.346Z,1.20
2018-12-07T13:35:46.604Z,1.50
2018-12-07T13:38:22.773Z,1.50
2018-12-07T13:40:59.928Z,1.85
2018-12-07T13:43:35.829Z,1.65
2018-12-07T13:46:11.961Z,1.22
2018-12-07T13:48:48.227Z,1.90
2018-12-07T13:51:24.865Z,2.02
2018-12-07T13:54:01.308Z,1.75
2018-12-07T13:56:37.463Z,1.40
2018-12-07T13:59:13.844Z,1.40
2018-12-07T14:01:50.316Z,1.70
2018-12-07T14:04:26.711Z,2.02
2018-12-07T14:07:03.085Z,1.60
2018-12-07T14:09:39.467Z,1.85
2018-12-07T14:12:15.728Z,1.85
2018-12-07T14:14:52.075Z,2.58
2018-12-07T14:17:29.477Z,2.05
2018-12-07T14:20:06.102Z,3.08
2018-12-07T14:22:42.107Z,2.58
2018-12-07T14:25:18.403Z,3.30
2018-12-07T14:27:54.411Z,3.40
2018-12-07T14:30:30.998Z,3.12
2018-12-07T14:33:07.599Z,3.10
2018-12-07T14:35:44.631Z,4.85
2018-12-07T14:38:20.905Z,3.33
2018-12-07T14:40:57.198Z,4.33
2018-12-07T14:43:33.704Z,3.50
2018-12-07T14:46:09.886Z,3.95
2018-12-07T14:48:46.253Z,3.83
2018-12-07T14:51:22.339Z,3.95
2018-12-07T14:53:59.144Z,4.22
2018-12-07T14:56:35.654Z,3.80
2018-12-07T14:59:12.174Z,3.62
2018-12-07T15:01:48.282Z,3.60
2018-12-07T15:04:24.381Z,4.37
2018-12-07T15:07:00.533Z,4.03
2018-12-07T15:09:36.780Z,4.87
2018-12-07T15:12:13.089Z,4.50
2018-12-07T15:14:49.735Z,4.92
2018-12-07T15:17:26.133Z,4.15
2018-12-07T15:20:02.372Z,4.90
2018-12-07T15:22:38.911Z,5.50
2018-12-07T15:25:15.102Z,4.67
2018-12-07T15:27:51.382Z,4.20
2018-12-07T15:30:27.658Z,5.28
2018-12-07T15:33:04.223Z,5.22
2018-12-07T15:35:40.776Z,5.45
2018-12-07T15:38:16.909Z,5.42
2018-12-07T15:40:52.985Z,6.08
2018-12-07T15:43:28.962Z,5.47
2018-12-07T15:46:04.989Z,5.10
2018-12-07T15:48:41.191Z,6.15
2018-12-07T15:51:17.596Z,5.67
2018-12-07T15:53:53.987Z,5.55
2018-12-07T15:56:30.535Z,7.00
2018-12-07T15:59:07.138Z,6.97
2018-12-07T16:01:43.550Z,5.92
2018-12-07T16:04:20.058Z,6.45
2018-12-07T16:06:56.334Z,6.72
2018-12-07T16:09:32.826Z,6.22
2018-12-07T16:12:09.443Z,6.58
2018-12-07T16:14:45.671Z,8.35
2018-12-07T16:17:22.154Z,7.40
2018-12-07T16:19:58.146Z,7.20
2018-12-07T16:22:34.303Z,8.00
2018-12-07T16:25:10.629Z,8.40
2018-12-07T16:27:47.100Z,8.15
2018-12-07T16:30:23.337Z,7.83
2018-12-07T16:32:59.302Z,7.33
2018-12-07T16:35:35.537Z,9.13
2018-12-07T16:38:11.857Z,9.35
2018-12-07T16:40:48.102Z,9.18
2018-12-07T16:43:24.361Z,10.03
2018-12-07T16:46:00.952Z,8.70
2018-12-07T16:48:37.678Z,10.82
2018-12-07T16:51:14.272Z,10.43
2018-12-07T16:53:50.804Z,15.05
2018-12-07T16:56:27.828Z,11.53
2018-12-07T16:59:04.480Z,11.10
2018-12-07T17:01:40.760Z,12.10
2018-12-07T17:04:17.394Z,10.98
2018-12-07T17:06:53.614Z,10.80
2018-12-07T17:09:30.181Z,10.23
2018-12-07T17:12:06.705Z,10.00
2018-12-07T17:14:42.957Z,10.28
2018-12-07T17:17:19.222Z,9.80
2018-12-07T17:19:55.664Z,9.83
2018-12-07T17:22:31.927Z,10.23
2018-12-07T17:25:08.207Z,8.83
2018-12-07T17:27:44.559Z,9.03
2018-12-07T17:30:20.704Z,10.90
2018-12-07T17:32:56.709Z,11.05
2018-12-07T17:35:33.053Z,10.45
2018-12-07T17:38:09.610Z,11.40
2018-12-07T17:40:46.068Z,11.33
2018-12-07T17:43:22.287Z,11.00
2018-12-07T17:45:58.512Z,10.90
2018-12-07T17:48:34.841Z,12.05
2018-12-07T17:51:11.344Z,11.35
2018-12-07T17:53:47.480Z,11.35
2018-12-07T17:56:23.905Z,11.18
2018-12-07T17:58:59.937Z,9.80
2018-12-07T18:01:35.994Z,11.83
2018-12-07T18:04:12.063Z,10.25
2018-12-07T18:06:48.502Z,9.45
2018-12-07T18:09:25.124Z,10.58
2018-12-07T18:12:01.338Z,8.80
2018-12-07T18:14:38.021Z,9.00
2018-12-07T18:17:13.983Z,9.48
2018-12-07T18:19:50.184Z,9.65
2018-12-07T18:22:26.782Z,10.45
2018-12-07T18:25:04.675Z,10.80
2018-12-07T18:27:41.160Z,11.48
2018-12-07T18:30:17.796Z,11.57
2018-12-07T18:32:55.274Z,11.30
2018-12-07T18:35:31.271Z,12.93
2018-12-07T18:38:07.624Z,23.15
2018-12-07T18:40:43.974Z,12.55
2018-12-07T18:43:20.191Z,13.20
2018-12-07T18:45:56.524Z,12.45
2018-12-07T18:48:32.884Z,12.70
2018-12-07T18:51:09.154Z,15.05
2018-12-07T18:53:45.838Z,13.75
2018-12-07T18:56:22.357Z,14.43
2018-12-07T18:58:58.763Z,14.03
2018-12-07T19:01:35.260Z,13.22
2018-12-07T19:04:11.550Z,14.35
2018-12-07T19:06:48.090Z,14.95
2018-12-07T19:09:24.565Z,14.13
2018-12-07T19:12:00.950Z,14.78
2018-12-07T19:14:37.328Z,14.98
2018-12-07T19:17:13.759Z,14.50
2018-12-07T19:19:51.241Z,15.15
2018-12-07T19:22:27.751Z,13.53
2018-12-07T19:25:04.512Z,14.35
2018-12-07T19:27:40.856Z,14.07
2018-12-07T19:30:17.478Z,13.30
2018-12-07T19:32:53.784Z,15.05
2018-12-07T19:35:30.049Z,15.50
2018-12-07T19:38:06.338Z,14.28
2018-12-07T19:40:42.624Z,13.35
2018-12-07T19:43:18.946Z,13.93
2018-12-07T19:45:56.580Z,14.23
2018-12-07T19:48:32.656Z,14.15
2018-12-07T19:51:09.061Z,14.70
2018-12-07T19:53:45.092Z,14.47
2018-12-07T19:56:21.599Z,14.87
2018-12-07T19:58:58.242Z,13.80
2018-12-07T20:01:34.773Z,12.47
2018-12-07T20:04:11.508Z,14.65
2018-12-07T20:06:47.813Z,14.40
2018-12-07T20:09:24.086Z,16.02
2018-12-07T20:12:00.779Z,12.18
2018-12-07T20:14:37.048Z,14.83
2018-12-07T20:17:13.460Z,16.82
2018-12-07T20:19:49.835Z,14.53
2018-12-07T20:22:25.937Z,14.10
2018-12-07T20:25:02.293Z,13.53
2018-12-07T20:27:38.988Z,11.83
2018-12-07T20:30:15.498Z,10.88
2018-12-07T20:32:52.013Z,5.20
2018-12-07T20:35:28.262Z,3.35
2018-12-07T20:38:04.546Z,2.35
2018-12-07T20:40:40.933Z,2.50
2018-12-07T20:43:16.952Z,1.30
2018-12-07T20:45:53.219Z,1.52
2018-12-07T20:48:29.595Z,1.45
2018-12-07T20:51:06.242Z,2.87
2018-12-07T20:53:43.058Z,1.72
2018-12-07T20:56:19.148Z,1.75
2018-12-07T20:58:55.359Z,1.50
2018-12-07T21:01:31.688Z,1.57
2018-12-07T21:04:24.036Z,2.45
2018-12-07T21:07:18.631Z,2.25
2018-12-07T21:11:06.917Z,2.58
2018-12-07T21:13:53.929Z,1.42
2018-12-07T21:17:18.123Z,2.52
2018-12-07T21:20:05.669Z,1.90
2018-12-07T21:22:42.495Z,3.62
2018-12-07T21:25:18.564Z,2.20
2018-12-07T21:27:54.917Z,2.85
2018-12-07T21:31:03.353Z,2.35
2018-12-07T21:38:01.219Z,2.52
2018-12-07T21:40:38.271Z,2.60
2018-12-07T21:43:14.422Z,2.65
2018-12-07T21:45:50.639Z,3.85
2018-12-07T21:48:29.771Z,2.67
2018-12-07T21:51:28.436Z,3.95
2018-12-07T21:54:04.861Z,2.40
2018-12-07T21:56:40.887Z,3.35
2018-12-07T21:59:17.083Z,2.33
2018-12-07T22:01:53.400Z,2.20
2018-12-07T22:04:29.827Z,2.45
2018-12-07T22:07:06.197Z,2.98
2018-12-07T22:09:42.751Z,2.98
2018-12-07T22:12:19.034Z,3.27
2018-12-07T22:14:55.548Z,4.97
2018-12-07T22:17:31.955Z,2.87
2018-12-07T22:20:08.402Z,3.87
2018-12-07T22:22:44.423Z,3.77
2018-12-07T22:25:21.335Z,2.37
2018-12-07T22:27:57.787Z,2.85
2018-12-07T22:30:34.596Z,2.02
2018-12-07T22:33:11.186Z,1.90
2018-12-07T22:35:47.234Z,2.35
2018-12-07T22:38:23.416Z,2.47
2018-12-07T22:41:00.443Z,1.82
2018-12-07T22:43:36.839Z,2.50
2018-12-07T22:46:12.996Z,1.90
2018-12-07T22:48:49.130Z,2.30
2018-12-07T22:51:25.452Z,1.90
2018-12-07T22:54:01.556Z,1.95
2018-12-07T22:56:37.673Z,2.45
2018-12-07T22:59:13.785Z,3.85
2018-12-07T23:01:50.105Z,2.70
2018-12-07T23:04:26.392Z,1.70
2018-12-07T23:07:02.528Z,1.35
2018-12-07T23:09:38.914Z,2.70
2018-12-07T23:12:16.524Z,2.80
2018-12-07T23:14:52.654Z,2.80
2018-12-07T23:17:28.794Z,2.62
2018-12-07T23:20:05.215Z,3.65
2018-12-07T23:22:41.024Z,3.17
2018-12-07T23:25:16.948Z,3.67
2018-12-07T23:27:53.114Z,2.85
2018-12-07T23:30:29.328Z,2.65
2018-12-07T23:33:05.507Z,2.77
2018-12-07T23:35:41.714Z,2.30
2018-12-07T23:38:18.042Z,2.35
2018-12-07T23:40:54.083Z,3.30
2018-12-07T23:43:30.266Z,3.15
2018-12-07T23:46:06.291Z,3.67
2018-12-07T23:48:42.275Z,2.75
2018-12-07T23:51:18.415Z,4.47
2018-12-07T23:53:54.643Z,4.10
2018-12-07T23:56:31.057Z,4.67
2018-12-07T23:59:07.008Z,3.60
